sensor_id;sensor_type;location;lat;lon;timestamp;P1;durP1;ratioP1;P2;durP2;ratioP2
20527;SDS011;23612;50.894;10.700;2023-01-05T00:01:17;11.07;;;2.33;;
20527;SDS011;23612;50.894;10.700;2023-01-05T00:03:43;10.02;;;2.13;;
20527;SDS011;23612;50.894;10.700;2023-01-05T00:06:09;10.82;;;2.78;;
20527;SDS011;23612;50.894;10.700;2023-01-05T00:08:37;11.50;;;1.95;;
20527;SDS011;23612;50.894;10.700;2023-01-05T00:11:13;8.50;;;2.13;;
20527;SDS011;23612;50.894;10.700;2023-01-05T00:14:02;6.25;;;1.63;;
20527;SDS011;23612;50.894;10.700;2023-01-05T00:16:46;12.23;;;2.20;;
20527;SDS011;23612;50.894;10.700;2023-01-05T00:19:31;9.25;;;2.05;;
20527;SDS011;23612;50.894;10.700;2023-01-05T00:24:55;9.95;;;2.10;;
20527;SDS011;23612;50.894;10.700;2023-01-05T00:27:21;11.48;;;2.20;;
20527;SDS011;23612;50.894;10.700;2023-01-05T00:29:46;10.05;;;2.53;;
20527;SDS011;23612;50.894;10.700;2023-01-05T00:32:12;9.85;;;2.08;;
20527;SDS011;23612;50.894;10.700;2023-01-05T00:34:37;9.15;;;2.60;;
20527;SDS011;23612;50.894;10.700;2023-01-05T00:37:03;10.75;;;2.85;;
20527;SDS011;23612;50.894;10.700;2023-01-05T00:39:28;7.97;;;2.03;;
20527;SDS011;23612;50.894;10.700;2023-01-05T00:41:54;6.25;;;1.77;;
20527;SDS011;23612;50.894;10.700;2023-01-05T00:44:19;9.00;;;3.38;;
20527;SDS011;23612;50.894;10.700;2023-01-05T00:46:45;9.52;;;2.03;;
20527;SDS011;23612;50.894;10.700;2023-01-05T00:49:10;12.13;;;2.00;;
20527;SDS011;23612;50.894;10.700;2023-01-05T00:51:36;9.10;;;2.75;;
20527;SDS011;23612;50.894;10.700;2023-01-05T00:54:01;6.53;;;1.88;;
20527;SDS011;23612;50.894;10.700;2023-01-05T00:56:26;9.40;;;2.10;;
20527;SDS011;23612;50.894;10.700;2023-01-05T00:58:52;11.32;;;1.83;;
20527;SDS011;23612;50.894;10.700;2023-01-05T01:01:19;5.10;;;1.60;;
20527;SDS011;23612;50.894;10.700;2023-01-05T01:03:44;8.95;;;2.17;;
20527;SDS011;23612;50.894;10.700;2023-01-05T01:06:10;12.27;;;2.10;;
20527;SDS011;23612;50.894;10.700;2023-01-05T01:08:37;6.45;;;2.15;;
20527;SDS011;23612;50.894;10.700;2023-01-05T01:11:03;9.48;;;2.00;;
20527;SDS011;23612;50.894;10.700;2023-01-05T01:13:29;8.63;;;2.13;;
20527;SDS011;23612;50.894;10.700;2023-01-05T01:15:55;7.70;;;1.70;;
20527;SDS011;23612;50.894;10.700;2023-01-05T01:18:20;9.68;;;1.73;;
20527;SDS011;23612;50.894;10.700;2023-01-05T01:20:47;11.82;;;2.10;;
20527;SDS011;23612;50.894;10.700;2023-01-05T01:23:12;11.27;;;2.13;;
20527;SDS011;23612;50.894;10.700;2023-01-05T01:25:38;13.38;;;2.20;;
20527;SDS011;23612;50.894;10.700;2023-01-05T01:28:04;9.48;;;2.53;;
20527;SDS011;23612;50.894;10.700;2023-01-05T01:30:30;7.50;;;1.88;;
20527;SDS011;23612;50.894;10.700;2023-01-05T01:32:55;10.60;;;1.95;;
20527;SDS011;23612;50.894;10.700;2023-01-05T01:35:21;6.32;;;1.70;;
20527;SDS011;23612;50.894;10.700;2023-01-05T01:37:46;10.85;;;2.40;;
20527;SDS011;23612;50.894;10.700;2023-01-05T01:40:11;5.82;;;1.65;;
20527;SDS011;23612;50.894;10.700;2023-01-05T01:42:37;12.60;;;2.08;;
20527;SDS011;23612;50.894;10.700;2023-01-05T01:45:16;12.20;;;2.50;;
20527;SDS011;23612;50.894;10.700;2023-01-05T01:47:54;10.68;;;2.10;;
20527;SDS011;23612;50.894;10.700;2023-01-05T01:50:35;15.40;;;2.53;;
20527;SDS011;23612;50.894;10.700;2023-01-05T01:53:07;9.93;;;2.00;;
20527;SDS011;23612;50.894;10.700;2023-01-05T01:55:36;7.70;;;1.73;;
20527;SDS011;23612;50.894;10.700;2023-01-05T01:58:04;11.60;;;2.20;;
20527;SDS011;23612;50.894;10.700;2023-01-05T02:00:35;6.68;;;1.80;;
20527;SDS011;23612;50.894;10.700;2023-01-05T02:03:01;10.05;;;1.80;;
20527;SDS011;23612;50.894;10.700;2023-01-05T02:05:29;8.10;;;2.00;;
20527;SDS011;23612;50.894;10.700;2023-01-05T02:07:56;10.75;;;2.08;;
20527;SDS011;23612;50.894;10.700;2023-01-05T02:11:04;6.18;;;1.80;;
20527;SDS011;23612;50.894;10.700;2023-01-05T02:16:02;11.07;;;2.20;;
20527;SDS011;23612;50.894;10.700;2023-01-05T02:21:29;11.48;;;2.05;;
20527;SDS011;23612;50.894;10.700;2023-01-05T02:27:10;8.40;;;2.00;;
20527;SDS011;23612;50.894;10.700;2023-01-05T02:29:58;10.65;;;1.90;;
20527;SDS011;23612;50.894;10.700;2023-01-05T02:33:05;9.30;;;2.08;;
20527;SDS011;23612;50.894;10.700;2023-01-05T02:35:46;9.77;;;2.30;;
20527;SDS011;23612;50.894;10.700;2023-01-05T02:38:55;12.27;;;2.08;;
20527;SDS011;23612;50.894;10.700;2023-01-05T02:41:37;13.32;;;2.65;;
20527;SDS011;23612;50.894;10.700;2023-01-05T02:44:16;9.43;;;2.40;;
20527;SDS011;23612;50.894;10.700;2023-01-05T02:46:44;11.35;;;2.05;;
20527;SDS011;23612;50.894;10.700;2023-01-05T02:49:10;13.98;;;2.65;;
20527;SDS011;23612;50.894;10.700;2023-01-05T02:51:40;8.77;;;1.92;;
20527;SDS011;23612;50.894;10.700;2023-01-05T02:54:13;7.78;;;2.45;;
20527;SDS011;23612;50.894;10.700;2023-01-05T02:56:54;9.35;;;2.00;;
20527;SDS011;23612;50.894;10.700;2023-01-05T02:59:28;12.65;;;2.47;;
20527;SDS011;23612;50.894;10.700;2023-01-05T03:02:08;10.80;;;2.58;;
20527;SDS011;23612;50.894;10.700;2023-01-05T03:04:47;9.80;;;2.00;;
20527;SDS011;23612;50.894;10.700;2023-01-05T03:07:18;10.93;;;2.30;;
20527;SDS011;23612;50.894;10.700;2023-01-05T03:09:49;11.98;;;2.13;;
20527;SDS011;23612;50.894;10.700;2023-01-05T03:12:31;11.20;;;2.13;;
20527;SDS011;23612;50.894;10.700;2023-01-05T03:15:30;12.80;;;2.20;;
20527;SDS011;23612;50.894;10.700;2023-01-05T03:17:57;15.35;;;2.35;;
20527;SDS011;23612;50.894;10.700;2023-01-05T03:20:27;9.90;;;2.00;;
20527;SDS011;23612;50.894;10.700;2023-01-05T03:22:55;9.10;;;2.08;;
20527;SDS011;23612;50.894;10.700;2023-01-05T03:25:42;11.93;;;2.55;;
20527;SDS011;23612;50.894;10.700;2023-01-05T03:31:38;12.65;;;2.47;;
20527;SDS011;23612;50.894;10.700;2023-01-05T03:37:32;10.20;;;2.03;;
20527;SDS011;23612;50.894;10.700;2023-01-05T03:40:02;14.70;;;2.45;;
20527;SDS011;23612;50.894;10.700;2023-01-05T03:42:33;14.82;;;2.67;;
20527;SDS011;23612;50.894;10.700;2023-01-05T03:44:59;10.48;;;2.70;;
20527;SDS011;23612;50.894;10.700;2023-01-05T03:47:25;7.60;;;2.28;;
20527;SDS011;23612;50.894;10.700;2023-01-05T03:49:51;12.40;;;2.50;;
20527;SDS011;23612;50.894;10.700;2023-01-05T03:52:17;15.52;;;2.40;;
20527;SDS011;23612;50.894;10.700;2023-01-05T03:54:42;11.60;;;2.42;;
20527;SDS011;23612;50.894;10.700;2023-01-05T03:57:08;12.43;;;3.30;;
20527;SDS011;23612;50.894;10.700;2023-01-05T03:59:33;8.73;;;2.20;;
20527;SDS011;23612;50.894;10.700;2023-01-05T04:01:59;9.93;;;2.13;;
20527;SDS011;23612;50.894;10.700;2023-01-05T04:04:24;8.20;;;2.00;;
20527;SDS011;23612;50.894;10.700;2023-01-05T04:06:49;12.70;;;2.60;;
20527;SDS011;23612;50.894;10.700;2023-01-05T04:09:15;15.02;;;2.95;;
20527;SDS011;23612;50.894;10.700;2023-01-05T04:11:40;13.68;;;2.80;;
20527;SDS011;23612;50.894;10.700;2023-01-05T04:14:06;18.65;;;3.03;;
20527;SDS011;23612;50.894;10.700;2023-01-05T04:16:32;15.07;;;3.05;;
20527;SDS011;23612;50.894;10.700;2023-01-05T04:18:57;17.67;;;3.63;;
20527;SDS011;23612;50.894;10.700;2023-01-05T04:21:23;14.55;;;3.25;;
20527;SDS011;23612;50.894;10.700;2023-01-05T04:23:48;15.80;;;3.00;;
20527;SDS011;23612;50.894;10.700;2023-01-05T04:26:13;14.40;;;3.28;;
20527;SDS011;23612;50.894;10.700;2023-01-05T04:28:39;18.98;;;3.17;;
20527;SDS011;23612;50.894;10.700;2023-01-05T04:31:04;10.07;;;2.30;;
20527;SDS011;23612;50.894;10.700;2023-01-05T04:33:30;14.20;;;3.33;;
20527;SDS011;23612;50.894;10.700;2023-01-05T04:35:55;11.93;;;3.40;;
20527;SDS011;23612;50.894;10.700;2023-01-05T04:38:21;9.52;;;2.97;;
20527;SDS011;23612;50.894;10.700;2023-01-05T04:40:47;18.63;;;3.60;;
20527;SDS011;23612;50.894;10.700;2023-01-05T04:43:13;15.20;;;3.97;;
20527;SDS011;23612;50.894;10.700;2023-01-05T04:45:39;14.50;;;2.85;;
20527;SDS011;23612;50.894;10.700;2023-01-05T04:48:04;11.77;;;3.13;;
20527;SDS011;23612;50.894;10.700;2023-01-05T04:50:30;20.38;;;3.25;;
20527;SDS011;23612;50.894;10.700;2023-01-05T04:52:55;17.17;;;2.83;;
20527;SDS011;23612;50.894;10.700;2023-01-05T04:55:21;14.75;;;2.92;;
20527;SDS011;23612;50.894;10.700;2023-01-05T04:57:47;14.98;;;2.85;;
20527;SDS011;23612;50.894;10.700;2023-01-05T05:00:12;13.13;;;2.72;;
20527;SDS011;23612;50.894;10.700;2023-01-05T05:02:38;11.52;;;2.80;;
20527;SDS011;23612;50.894;10.700;2023-01-05T05:05:03;10.35;;;2.28;;
20527;SDS011;23612;50.894;10.700;2023-01-05T05:07:29;13.93;;;3.80;;
20527;SDS011;23612;50.894;10.700;2023-01-05T05:09:54;14.40;;;3.33;;
20527;SDS011;23612;50.894;10.700;2023-01-05T05:12:20;14.55;;;2.95;;
20527;SDS011;23612;50.894;10.700;2023-01-05T05:14:46;13.32;;;3.53;;
20527;SDS011;23612;50.894;10.700;2023-01-05T05:17:12;13.35;;;3.28;;
20527;SDS011;23612;50.894;10.700;2023-01-05T05:19:38;28.38;;;6.75;;
20527;SDS011;23612;50.894;10.700;2023-01-05T05:22:03;13.85;;;3.88;;
20527;SDS011;23612;50.894;10.700;2023-01-05T05:24:29;22.27;;;4.03;;
20527;SDS011;23612;50.894;10.700;2023-01-05T05:26:54;9.75;;;2.72;;
20527;SDS011;23612;50.894;10.700;2023-01-05T05:29:21;13.70;;;2.92;;
20527;SDS011;23612;50.894;10.700;2023-01-05T05:31:47;10.63;;;2.67;;
20527;SDS011;23612;50.894;10.700;2023-01-05T05:34:12;12.40;;;3.08;;
20527;SDS011;23612;50.894;10.700;2023-01-05T05:36:38;12.70;;;3.08;;
20527;SDS011;23612;50.894;10.700;2023-01-05T05:39:03;13.15;;;2.92;;
20527;SDS011;23612;50.894;10.700;2023-01-05T05:41:29;14.05;;;2.63;;
20527;SDS011;23612;50.894;10.700;2023-01-05T05:43:54;11.98;;;2.90;;
20527;SDS011;23612;50.894;10.700;2023-01-05T05:46:24;17.60;;;2.47;;
20527;SDS011;23612;50.894;10.700;2023-01-05T05:48:56;25.45;;;3.03;;
20527;SDS011;23612;50.894;10.700;2023-01-05T05:51:22;13.40;;;3.72;;
20527;SDS011;23612;50.894;10.700;2023-01-05T05:53:48;15.73;;;2.88;;
20527;SDS011;23612;50.894;10.700;2023-01-05T05:56:14;13.70;;;2.85;;
20527;SDS011;23612;50.894;10.700;2023-01-05T05:58:40;10.25;;;3.33;;
20527;SDS011;23612;50.894;10.700;2023-01-05T06:01:05;13.13;;;2.88;;
20527;SDS011;23612;50.894;10.700;2023-01-05T06:03:31;15.57;;;2.45;;
20527;SDS011;23612;50.894;10.700;2023-01-05T06:05:57;11.25;;;2.92;;
20527;SDS011;23612;50.894;10.700;2023-01-05T06:08:22;17.23;;;3.83;;
20527;SDS011;23612;50.894;10.700;2023-01-05T06:10:48;17.55;;;6.80;;
20527;SDS011;23612;50.894;10.700;2023-01-05T06:13:15;17.00;;;4.32;;
20527;SDS011;23612;50.894;10.700;2023-01-05T06:15:41;18.65;;;5.30;;
20527;SDS011;23612;50.894;10.700;2023-01-05T06:18:07;17.80;;;3.97;;
20527;SDS011;23612;50.894;10.700;2023-01-05T06:20:32;10.48;;;3.60;;
20527;SDS011;23612;50.894;10.700;2023-01-05T06:22:58;11.07;;;2.85;;
20527;SDS011;23612;50.894;10.700;2023-01-05T06:25:24;13.18;;;3.00;;
20527;SDS011;23612;50.894;10.700;2023-01-05T06:27:49;12.82;;;3.30;;
20527;SDS011;23612;50.894;10.700;2023-01-05T06:30:15;14.07;;;2.92;;
20527;SDS011;23612;50.894;10.700;2023-01-05T06:32:40;17.48;;;3.40;;
20527;SDS011;23612;50.894;10.700;2023-01-05T06:35:06;14.98;;;3.50;;
20527;SDS011;23612;50.894;10.700;2023-01-05T06:37:31;13.65;;;3.95;;
20527;SDS011;23612;50.894;10.700;2023-01-05T06:39:57;11.23;;;3.20;;
20527;SDS011;23612;50.894;10.700;2023-01-05T06:42:23;15.25;;;4.53;;
20527;SDS011;23612;50.894;10.700;2023-01-05T06:44:49;13.68;;;4.20;;
20527;SDS011;23612;50.894;10.700;2023-01-05T06:47:15;16.55;;;4.43;;
20527;SDS011;23612;50.894;10.700;2023-01-05T06:49:40;19.35;;;4.45;;
20527;SDS011;23612;50.894;10.700;2023-01-05T06:52:05;16.38;;;4.05;;
20527;SDS011;23612;50.894;10.700;2023-01-05T06:54:31;15.77;;;4.43;;
20527;SDS011;23612;50.894;10.700;2023-01-05T06:56:56;13.48;;;4.72;;
20527;SDS011;23612;50.894;10.700;2023-01-05T06:59:22;12.98;;;3.47;;
20527;SDS011;23612;50.894;10.700;2023-01-05T07:01:47;18.60;;;3.35;;
20527;SDS011;23612;50.894;10.700;2023-01-05T07:04:13;13.63;;;3.22;;
20527;SDS011;23612;50.894;10.700;2023-01-05T07:06:38;11.07;;;3.55;;
20527;SDS011;23612;50.894;10.700;2023-01-05T07:09:04;10.88;;;3.10;;
20527;SDS011;23612;50.894;10.700;2023-01-05T07:11:30;9.50;;;3.13;;
20527;SDS011;23612;50.894;10.700;2023-01-05T07:13:55;12.52;;;3.08;;
20527;SDS011;23612;50.894;10.700;2023-01-05T07:16:21;12.48;;;2.80;;
20527;SDS011;23612;50.894;10.700;2023-01-05T07:18:46;14.00;;;3.70;;
20527;SDS011;23612;50.894;10.700;2023-01-05T07:21:12;13.43;;;2.92;;
20527;SDS011;23612;50.894;10.700;2023-01-05T07:23:37;17.50;;;3.10;;
20527;SDS011;23612;50.894;10.700;2023-01-05T07:26:07;15.95;;;2.83;;
20527;SDS011;23612;50.894;10.700;2023-01-05T07:28:33;10.80;;;2.90;;
20527;SDS011;23612;50.894;10.700;2023-01-05T07:31:00;13.15;;;2.85;;
20527;SDS011;23612;50.894;10.700;2023-01-05T07:33:25;14.48;;;3.72;;
20527;SDS011;23612;50.894;10.700;2023-01-05T07:35:51;10.40;;;3.05;;
20527;SDS011;23612;50.894;10.700;2023-01-05T07:38:16;8.13;;;2.55;;
20527;SDS011;23612;50.894;10.700;2023-01-05T07:40:42;11.00;;;2.90;;
20527;SDS011;23612;50.894;10.700;2023-01-05T07:43:07;12.07;;;2.75;;
20527;SDS011;23612;50.894;10.700;2023-01-05T07:45:33;8.20;;;2.28;;
20527;SDS011;23612;50.894;10.700;2023-01-05T07:47:58;12.00;;;2.67;;
20527;SDS011;23612;50.894;10.700;2023-01-05T07:50:24;13.57;;;2.80;;
20527;SDS011;23612;50.894;10.700;2023-01-05T07:52:50;9.48;;;2.53;;
20527;SDS011;23612;50.894;10.700;2023-01-05T07:55:15;12.82;;;3.00;;
20527;SDS011;23612;50.894;10.700;2023-01-05T07:57:41;10.68;;;2.97;;
20527;SDS011;23612;50.894;10.700;2023-01-05T08:00:07;10.00;;;2.95;;
20527;SDS011;23612;50.894;10.700;2023-01-05T08:02:34;14.35;;;2.90;;
20527;SDS011;23612;50.894;10.700;2023-01-05T08:04:59;10.50;;;2.60;;
20527;SDS011;23612;50.894;10.700;2023-01-05T08:07:24;16.05;;;3.25;;
20527;SDS011;23612;50.894;10.700;2023-01-05T08:09:50;11.38;;;3.17;;
20527;SDS011;23612;50.894;10.700;2023-01-05T08:12:34;15.02;;;3.35;;
20527;SDS011;23612;50.894;10.700;2023-01-05T08:15:19;13.15;;;2.63;;
20527;SDS011;23612;50.894;10.700;2023-01-05T08:17:45;12.07;;;3.35;;
20527;SDS011;23612;50.894;10.700;2023-01-05T08:20:10;11.15;;;3.20;;
20527;SDS011;23612;50.894;10.700;2023-01-05T08:22:36;10.85;;;3.42;;
20527;SDS011;23612;50.894;10.700;2023-01-05T08:25:02;9.80;;;2.83;;
20527;SDS011;23612;50.894;10.700;2023-01-05T08:27:28;13.02;;;3.17;;
20527;SDS011;23612;50.894;10.700;2023-01-05T08:29:54;8.82;;;3.08;;
20527;SDS011;23612;50.894;10.700;2023-01-05T08:32:19;10.65;;;3.20;;
20527;SDS011;23612;50.894;10.700;2023-01-05T08:34:45;14.13;;;3.33;;
20527;SDS011;23612;50.894;10.700;2023-01-05T08:37:10;11.05;;;3.67;;
20527;SDS011;23612;50.894;10.700;2023-01-05T08:39:35;13.90;;;3.25;;
20527;SDS011;23612;50.894;10.700;2023-01-05T08:42:01;10.25;;;2.80;;
20527;SDS011;23612;50.894;10.700;2023-01-05T08:44:26;13.68;;;4.25;;
20527;SDS011;23612;50.894;10.700;2023-01-05T08:46:52;13.98;;;3.35;;
20527;SDS011;23612;50.894;10.700;2023-01-05T08:49:17;17.58;;;3.30;;
20527;SDS011;23612;50.894;10.700;2023-01-05T08:51:43;14.32;;;3.15;;
20527;SDS011;23612;50.894;10.700;2023-01-05T08:54:08;9.98;;;2.42;;
20527;SDS011;23612;50.894;10.700;2023-01-05T08:56:34;10.73;;;2.40;;
20527;SDS011;23612;50.894;10.700;2023-01-05T08:58:59;7.75;;;3.28;;
20527;SDS011;23612;50.894;10.700;2023-01-05T09:01:25;8.63;;;3.00;;
20527;SDS011;23612;50.894;10.700;2023-01-05T09:03:50;7.60;;;2.78;;
20527;SDS011;23612;50.894;10.700;2023-01-05T09:06:16;7.25;;;2.92;;
20527;SDS011;23612;50.894;10.700;2023-01-05T09:08:42;7.38;;;1.83;;
20527;SDS011;23612;50.894;10.700;2023-01-05T09:11:16;7.75;;;2.38;;
20527;SDS011;23612;50.894;10.700;2023-01-05T09:13:45;5.13;;;2.10;;
20527;SDS011;23612;50.894;10.700;2023-01-05T09:16:12;6.60;;;2.28;;
20527;SDS011;23612;50.894;10.700;2023-01-05T09:18:39;6.88;;;1.95;;
20527;SDS011;23612;50.894;10.700;2023-01-05T09:21:06;4.75;;;2.10;;
20527;SDS011;23612;50.894;10.700;2023-01-05T09:23:33;7.60;;;1.90;;
20527;SDS011;23612;50.894;10.700;2023-01-05T09:25:59;6.47;;;2.03;;
20527;SDS011;23612;50.894;10.700;2023-01-05T09:28:27;8.02;;;2.15;;
20527;SDS011;23612;50.894;10.700;2023-01-05T09:30:52;10.05;;;3.42;;
20527;SDS011;23612;50.894;10.700;2023-01-05T09:33:17;8.18;;;2.10;;
20527;SDS011;23612;50.894;10.700;2023-01-05T09:35:43;4.43;;;2.20;;
20527;SDS011;23612;50.894;10.700;2023-01-05T09:38:08;5.75;;;2.28;;
20527;SDS011;23612;50.894;10.700;2023-01-05T09:40:36;5.10;;;2.38;;
20527;SDS011;23612;50.894;10.700;2023-01-05T09:43:09;9.52;;;2.42;;
20527;SDS011;23612;50.894;10.700;2023-01-05T09:45:44;8.85;;;2.30;;
20527;SDS011;23612;50.894;10.700;2023-01-05T09:48:12;8.48;;;1.90;;
20527;SDS011;23612;50.894;10.700;2023-01-05T09:50:39;4.20;;;1.85;;
20527;SDS011;23612;50.894;10.700;2023-01-05T09:53:08;8.13;;;1.60;;
20527;SDS011;23612;50.894;10.700;2023-01-05T09:55:36;4.15;;;1.63;;
20527;SDS011;23612;50.894;10.700;2023-01-05T09:58:05;5.40;;;1.70;;
20527;SDS011;23612;50.894;10.700;2023-01-05T10:00:38;6.35;;;1.73;;
20527;SDS011;23612;50.894;10.700;2023-01-05T10:03:08;4.95;;;1.90;;
20527;SDS011;23612;50.894;10.700;2023-01-05T10:05:38;5.15;;;2.00;;
20527;SDS011;23612;50.894;10.700;2023-01-05T10:08:07;7.05;;;2.08;;
20527;SDS011;23612;50.894;10.700;2023-01-05T10:10:57;4.97;;;1.92;;
20527;SDS011;23612;50.894;10.700;2023-01-05T10:13:56;9.25;;;2.20;;
20527;SDS011;23612;50.894;10.700;2023-01-05T10:16:27;9.32;;;1.52;;
20527;SDS011;23612;50.894;10.700;2023-01-05T10:18:53;8.57;;;2.13;;
20527;SDS011;23612;50.894;10.700;2023-01-05T10:24:17;5.13;;;1.70;;
20527;SDS011;23612;50.894;10.700;2023-01-05T10:26:57;5.60;;;1.77;;
20527;SDS011;23612;50.894;10.700;2023-01-05T10:29:46;7.05;;;1.65;;
20527;SDS011;23612;50.894;10.700;2023-01-05T10:32:23;6.00;;;2.67;;
20527;SDS011;23612;50.894;10.700;2023-01-05T10:35:05;5.72;;;1.80;;
20527;SDS011;23612;50.894;10.700;2023-01-05T10:37:54;5.43;;;1.85;;
20527;SDS011;23612;50.894;10.700;2023-01-05T10:45:33;6.80;;;1.60;;
20527;SDS011;23612;50.894;10.700;2023-01-05T10:48:00;7.95;;;1.70;;
20527;SDS011;23612;50.894;10.700;2023-01-05T10:50:27;7.60;;;1.65;;
20527;SDS011;23612;50.894;10.700;2023-01-05T10:52:54;8.27;;;1.80;;
20527;SDS011;23612;50.894;10.700;2023-01-05T10:55:22;4.90;;;1.40;;
20527;SDS011;23612;50.894;10.700;2023-01-05T10:57:49;14.90;;;2.40;;
20527;SDS011;23612;50.894;10.700;2023-01-05T11:00:19;5.88;;;1.83;;
20527;SDS011;23612;50.894;10.700;2023-01-05T11:05:29;5.22;;;1.50;;
20527;SDS011;23612;50.894;10.700;2023-01-05T11:08:05;6.43;;;2.55;;
20527;SDS011;23612;50.894;10.700;2023-01-05T11:10:47;9.30;;;2.17;;
20527;SDS011;23612;50.894;10.700;2023-01-05T11:13:17;6.35;;;1.88;;
20527;SDS011;23612;50.894;10.700;2023-01-05T11:16:14;6.45;;;1.92;;
20527;SDS011;23612;50.894;10.700;2023-01-05T11:18:54;6.05;;;2.47;;
20527;SDS011;23612;50.894;10.700;2023-01-05T11:21:40;10.65;;;4.38;;
20527;SDS011;23612;50.894;10.700;2023-01-05T11:24:24;7.35;;;2.40;;
20527;SDS011;23612;50.894;10.700;2023-01-05T11:26:53;6.38;;;1.85;;
20527;SDS011;23612;50.894;10.700;2023-01-05T11:29:23;6.18;;;2.20;;
20527;SDS011;23612;50.894;10.700;2023-01-05T11:42:15;5.80;;;2.15;;
20527;SDS011;23612;50.894;10.700;2023-01-05T11:44:48;2.58;;;1.75;;
20527;SDS011;23612;50.894;10.700;2023-01-05T11:47:21;4.40;;;1.90;;
20527;SDS011;23612;50.894;10.700;2023-01-05T11:52:41;8.43;;;2.28;;
20527;SDS011;23612;50.894;10.700;2023-01-05T11:55:40;6.05;;;2.72;;
20527;SDS011;23612;50.894;10.700;2023-01-05T12:06:51;5.63;;;1.92;;
20527;SDS011;23612;50.894;10.700;2023-01-05T12:09:13;13.15;;;2.70;;
20527;SDS011;23612;50.894;10.700;2023-01-05T12:15:04;9.00;;;3.60;;
20527;SDS011;23612;50.894;10.700;2023-01-05T12:17:49;7.25;;;3.60;;
20527;SDS011;23612;50.894;10.700;2023-01-05T12:23:27;10.77;;;4.38;;
20527;SDS011;23612;50.894;10.700;2023-01-05T12:28:49;7.65;;;3.33;;
20527;SDS011;23612;50.894;10.700;2023-01-05T12:34:10;8.63;;;3.17;;
20527;SDS011;23612;50.894;10.700;2023-01-05T12:39:55;9.98;;;3.10;;
20527;SDS011;23612;50.894;10.700;2023-01-05T12:45:32;11.18;;;3.78;;
20527;SDS011;23612;50.894;10.700;2023-01-05T12:50:38;7.85;;;2.95;;
20527;SDS011;23612;50.894;10.700;2023-01-05T12:56:05;5.00;;;2.30;;
20527;SDS011;23612;50.894;10.700;2023-01-05T12:58:39;5.90;;;3.00;;
20527;SDS011;23612;50.894;10.700;2023-01-05T13:01:27;6.95;;;2.47;;
20527;SDS011;23612;50.894;10.700;2023-01-05T13:03:59;7.00;;;3.28;;
20527;SDS011;23612;50.894;10.700;2023-01-05T13:06:34;10.45;;;4.10;;
20527;SDS011;23612;50.894;10.700;2023-01-05T13:09:11;7.85;;;3.08;;
20527;SDS011;23612;50.894;10.700;2023-01-05T13:11:50;12.75;;;4.13;;
20527;SDS011;23612;50.894;10.700;2023-01-05T13:14:35;8.98;;;4.50;;
20527;SDS011;23612;50.894;10.700;2023-01-05T13:17:10;15.82;;;5.18;;
20527;SDS011;23612;50.894;10.700;2023-01-05T13:19:50;10.95;;;3.60;;
20527;SDS011;23612;50.894;10.700;2023-01-05T13:22:28;8.23;;;3.25;;
20527;SDS011;23612;50.894;10.700;2023-01-05T13:24:59;9.07;;;3.85;;
20527;SDS011;23612;50.894;10.700;2023-01-05T13:27:28;11.98;;;4.78;;
20527;SDS011;23612;50.894;10.700;2023-01-05T13:29:56;14.10;;;8.00;;
20527;SDS011;23612;50.894;10.700;2023-01-05T13:44:33;10.80;;;4.40;;
20527;SDS011;23612;50.894;10.700;2023-01-05T13:47:31;8.68;;;3.78;;
20527;SDS011;23612;50.894;10.700;2023-01-05T13:53:16;10.27;;;3.20;;
20527;SDS011;23612;50.894;10.700;2023-01-05T13:55:47;9.35;;;3.45;;
20527;SDS011;23612;50.894;10.700;2023-01-05T13:58:22;12.05;;;3.50;;
20527;SDS011;23612;50.894;10.700;2023-01-05T14:00:50;13.55;;;4.30;;
20527;SDS011;23612;50.894;10.700;2023-01-05T14:03:20;14.90;;;3.75;;
20527;SDS011;23612;50.894;10.700;2023-01-05T14:05:52;8.40;;;3.50;;
20527;SDS011;23612;50.894;10.700;2023-01-05T14:08:23;11.25;;;4.78;;
20527;SDS011;23612;50.894;10.700;2023-01-05T14:11:05;10.75;;;4.50;;
20527;SDS011;23612;50.894;10.700;2023-01-05T14:13:42;9.10;;;4.10;;
20527;SDS011;23612;50.894;10.700;2023-01-05T14:24:28;13.23;;;5.43;;
20527;SDS011;23612;50.894;10.700;2023-01-05T14:32:11;13.45;;;4.45;;
20527;SDS011;23612;50.894;10.700;2023-01-05T14:34:52;15.10;;;4.93;;
20527;SDS011;23612;50.894;10.700;2023-01-05T14:37:21;14.90;;;5.60;;
20527;SDS011;23612;50.894;10.700;2023-01-05T14:40:00;14.63;;;5.10;;
20527;SDS011;23612;50.894;10.700;2023-01-05T14:45:00;10.40;;;5.28;;
20527;SDS011;23612;50.894;10.700;2023-01-05T14:47:45;18.50;;;5.53;;
20527;SDS011;23612;50.894;10.700;2023-01-05T14:50:34;17.52;;;7.47;;
20527;SDS011;23612;50.894;10.700;2023-01-05T14:55:37;15.98;;;4.50;;
20527;SDS011;23612;50.894;10.700;2023-01-05T15:01:18;20.08;;;6.15;;
20527;SDS011;23612;50.894;10.700;2023-01-05T15:04:05;12.45;;;5.15;;
20527;SDS011;23612;50.894;10.700;2023-01-05T15:09:42;18.25;;;7.57;;
20527;SDS011;23612;50.894;10.700;2023-01-05T15:12:27;17.65;;;5.30;;
20527;SDS011;23612;50.894;10.700;2023-01-05T15:15:13;18.58;;;5.55;;
20527;SDS011;23612;50.894;10.700;2023-01-05T15:26:15;13.48;;;4.70;;
20527;SDS011;23612;50.894;10.700;2023-01-05T15:31:58;9.80;;;5.70;;
20527;SDS011;23612;50.894;10.700;2023-01-05T15:34:37;15.00;;;5.78;;
20527;SDS011;23612;50.894;10.700;2023-01-05T15:42:17;13.45;;;6.05;;
20527;SDS011;23612;50.894;10.700;2023-01-05T15:44:47;25.02;;;7.60;;
20527;SDS011;23612;50.894;10.700;2023-01-05T15:47:16;20.13;;;6.47;;
20527;SDS011;23612;50.894;10.700;2023-01-05T15:49:42;15.77;;;6.25;;
20527;SDS011;23612;50.894;10.700;2023-01-05T15:52:19;17.90;;;6.00;;
20527;SDS011;23612;50.894;10.700;2023-01-05T15:55:35;19.77;;;5.90;;
20527;SDS011;23612;50.894;10.700;2023-01-05T15:57:52;16.05;;;6.47;;
20527;SDS011;23612;50.894;10.700;2023-01-05T16:00:24;24.48;;;8.40;;
20527;SDS011;23612;50.894;10.700;2023-01-05T16:02:57;16.92;;;5.97;;
20527;SDS011;23612;50.894;10.700;2023-01-05T16:05:27;16.65;;;7.10;;
20527;SDS011;23612;50.894;10.700;2023-01-05T16:07:58;20.80;;;6.18;;
20527;SDS011;23612;50.894;10.700;2023-01-05T16:10:28;20.02;;;5.82;;
20527;SDS011;23612;50.894;10.700;2023-01-05T16:15:38;23.15;;;6.65;;
20527;SDS011;23612;50.894;10.700;2023-01-05T16:18:06;19.85;;;7.13;;
20527;SDS011;23612;50.894;10.700;2023-01-05T16:20:38;20.35;;;7.88;;
20527;SDS011;23612;50.894;10.700;2023-01-05T16:23:14;20.10;;;7.50;;
20527;SDS011;23612;50.894;10.700;2023-01-05T16:25:55;21.42;;;7.78;;
20527;SDS011;23612;50.894;10.700;2023-01-05T16:28:22;19.65;;;7.85;;
20527;SDS011;23612;50.894;10.700;2023-01-05T16:30:51;23.00;;;7.55;;
20527;SDS011;23612;50.894;10.700;2023-01-05T16:35:57;18.10;;;6.88;;
20527;SDS011;23612;50.894;10.700;2023-01-05T16:38:32;30.45;;;8.32;;
20527;SDS011;23612;50.894;10.700;2023-01-05T16:41:03;18.23;;;8.00;;
20527;SDS011;23612;50.894;10.700;2023-01-05T16:51:06;20.40;;;7.45;;
20527;SDS011;23612;50.894;10.700;2023-01-05T16:53:50;18.77;;;7.57;;
20527;SDS011;23612;50.894;10.700;2023-01-05T16:58:43;23.15;;;7.03;;
20527;SDS011;23612;50.894;10.700;2023-01-05T17:03:38;23.60;;;9.20;;
20527;SDS011;23612;50.894;10.700;2023-01-05T17:06:04;22.02;;;7.82;;
20527;SDS011;23612;50.894;10.700;2023-01-05T17:08:31;15.52;;;5.50;;
20527;SDS011;23612;50.894;10.700;2023-01-05T17:11:00;21.25;;;6.03;;
20527;SDS011;23612;50.894;10.700;2023-01-05T17:13:40;18.13;;;5.40;;